Nearby METAR Reports

 

KCOS - Colorado Springs, Colorado, USA
Distance from station: S 6mi, 9km
Updated: Sat, 15-Jun-2024 12:54am MDT
Partly cloudy
Partly cloudy
 Wind from NNE
Wind: NNE 9 mph, 15 km/h
Temperature: 55°F, 13°C
Dew Point: 48°F, 9°C
Humidity: 77%
Barometer: 30.07 inHg, 1018.3 hPa
Clouds: Partly cloudy
Visibility: 10 miles, 16 km
Cloud details: Partly cloudy 25000 ft
2024/06/15 06:54 KCOS 150654Z 03008KT 10SM SCT250 13/09 A3007 RMK AO2 SLP103 T01280094 402720122
KAFF - Usaf Academy/Cos, Colorado, USA
Distance from station: NW 7mi, 12km
Updated: Sat, 15-Jun-2024 12:55am MDT
Clear
Clear
 Wind from ENE
Wind: ENE 6 mph, 9 km/h
Temperature: 55°F, 13°C
Dew Point: 46°F, 8°C
Humidity: 72%
Barometer: 30.06 inHg, 1017.9 hPa
Clouds: Clear
Visibility: 10 miles, 16 km
2024/06/15 06:55 KAFF 150655Z AUTO 06005KT 10SM CLR 13/08 A3006 RMK AO2 SLP087 T01260081 402560110
 
KFLY - Co Spngs Meadow, Colorado, USA
Distance from station: ENE 8mi, 13km
Updated: Sat, 15-Jun-2024 12:55am MDT
Clear
Clear
 Wind from NNE
Wind: NNE 5 mph, 7 km/h
Temperature: 54°F, 12°C
Dew Point: 48°F, 9°C
Humidity: 82%
Barometer: 30.12 inHg, 1020 hPa
Clouds: Clear
Visibility: 10 miles, 16 km
2024/06/15 06:55 KFLY 150655Z AUTO 02004KT 10SM CLR 12/09 A3012 RMK AO2 T01200088 402630110
KFCS - Fort Carson, Colorado, USA
Distance from station: S 17mi, 27km
Updated: Sat, 15-Jun-2024 12:55am MDT
Few Clouds
Few Clouds
 Wind from NNW
Wind: NNW 7 mph, 11 km/h
Temperature: 57°F, 14°C
Dew Point: 50°F, 10°C
Humidity: 77%
Barometer: 30.01 inHg, 1016.3 hPa
Clouds: Few Clouds
Visibility: 10 miles, 16 km
Cloud details: Few Clouds 13000 ft
2024/06/15 06:55 KFCS 150655Z AUTO 34006KT 10SM FEW130 14/10 A3001 RMK AO2 SLP106 T01370095 402850127 $
 
KMNH - Monument/Elbert, Colorado, USA
Distance from station: N 22mi, 35km
Updated: Sat, 15-Jun-2024 12:55am MDT
Clear
Clear
 Wind from SW
Wind: SW 8 mph, 13 km/h
Temperature: 54°F, 12°C
Dew Point: 45°F, 7°C
Humidity: 72%
Barometer: 30.13 inHg, 1020.3 hPa
Clouds: Clear
Visibility: 10 miles, 16 km
2024/06/15 06:55 KMNH 150655Z AUTO 22007KT 10SM CLR 12/07 A3013 RMK AO2
K1V6 - Canon City, Colorado, USA
Distance from station: SSW 39mi, 62km
Updated: Sat, 15-Jun-2024 12:55am MDT
Clear
Clear
 Wind from WNW
Wind: WNW 18 mph, 30 km/h, Gust: 23 mph, 37 km/h
Temperature: 68°F, 20°C
Dew Point: 43°F, 6°C
Humidity: 40%
Barometer: 30.02 inHg, 1016.6 hPa
Clouds: Clear
Visibility: 10 miles, 16 km
2024/06/15 06:55 K1V6 150655Z AUTO 30016G20KT 10SM CLR 20/06 A3002 RMK AO2
 
KPUB - Pueblo, Colorado, USA
Distance from station: SSE 44mi, 71km
Updated: Sat, 15-Jun-2024 12:53am MDT
Clear
Clear
 Wind from NNW
Wind: NNW 6 mph, 9 km/h
Temperature: 61°F, 16°C
Dew Point: 55°F, 13°C
Humidity: 83%
Barometer: 29.96 inHg, 1014.6 hPa
Clouds: Clear
Visibility: 10 miles, 16 km
2024/06/15 06:53 KPUB 150653Z AUTO 33005KT 10SM CLR 16/13 A2996 RMK AO2 SLP085 T01610133 402940156
KAPA - Denver/Arapahoe, Colorado, USA
Distance from station: N 47mi, 75km
Updated: Sat, 15-Jun-2024 12:53am MDT
Partly cloudy
Partly cloudy
 Wind from WNW
Wind: WNW 9 mph, 15 km/h
Temperature: 64°F, 18°C
Dew Point: 45°F, 7°C
Humidity: 49%
Barometer: 30.03 inHg, 1016.9 hPa
Clouds: Partly cloudy
Visibility: 10 miles, 16 km
Cloud details: Few Clouds 14000 ft
Partly cloudy 22000 ft
2024/06/15 06:53 KAPA 150653Z 29008KT 10SM FEW140 SCT220 18/07 A3003 RMK AO2 SLP098 T01780072 402670161